createdAt,value
2022-09-14T00:01:44.454Z,72.67
2022-09-14T00:04:17.766Z,72.79
2022-09-14T00:06:46.883Z,72.80
2022-09-14T00:09:21.418Z,72.78
2022-09-14T00:11:51.402Z,72.97
2022-09-14T00:14:20.665Z,73.09
2022-09-14T00:16:51.199Z,73.14
2022-09-14T00:19:27.768Z,73.34
2022-09-14T00:21:59.262Z,73.41
2022-09-14T00:24:31.476Z,73.44
2022-09-14T00:27:04.887Z,73.35
2022-09-14T00:29:35.309Z,73.45
2022-09-14T00:32:04.364Z,73.63
2022-09-14T00:34:35.460Z,73.63
2022-09-14T00:37:03.765Z,73.53
2022-09-14T00:39:32.024Z,73.70
2022-09-14T00:42:00.347Z,73.58
2022-09-14T00:44:28.556Z,73.41
2022-09-14T00:47:01.798Z,73.32
2022-09-14T00:49:42.591Z,73.13
2022-09-14T00:52:48.737Z,73.16
2022-09-14T00:55:24.242Z,73.15
2022-09-14T00:58:02.463Z,73.12
2022-09-14T01:00:32.164Z,73.06
2022-09-14T01:03:12.009Z,72.90
2022-09-14T01:06:08.152Z,72.81
2022-09-14T01:08:39.348Z,72.66
2022-09-14T01:11:43.468Z,72.70
2022-09-14T01:14:41.882Z,72.55
2022-09-14T01:17:30.634Z,72.49
2022-09-14T01:20:11.843Z,72.36
2022-09-14T01:23:29.974Z,72.37
2022-09-14T01:26:35.911Z,72.08
2022-09-14T01:29:28.987Z,72.05
2022-09-14T01:32:06.845Z,72.02
2022-09-14T01:34:47.130Z,71.94
2022-09-14T01:37:26.718Z,71.96
2022-09-14T01:40:16.027Z,71.92
2022-09-14T01:42:52.921Z,71.90
2022-09-14T01:45:24.098Z,71.71
2022-09-14T01:48:03.746Z,71.54
2022-09-14T01:50:57.018Z,71.37
2022-09-14T01:53:37.924Z,71.09
2022-09-14T01:56:22.298Z,70.91
2022-09-14T01:59:12.974Z,70.84
2022-09-14T02:01:50.683Z,70.89
2022-09-14T02:04:36.507Z,70.62
2022-09-14T02:07:06.935Z,70.67
2022-09-14T02:09:35.604Z,70.60
2022-09-14T02:12:09.002Z,70.32
2022-09-14T02:14:38.119Z,70.22
2022-09-14T02:17:14.602Z,70.15
2022-09-14T02:20:00.423Z,70.04
2022-09-14T02:22:53.083Z,69.87
2022-09-14T02:25:22.820Z,69.79
2022-09-14T02:27:53.926Z,69.97
2022-09-14T02:30:22.795Z,69.91
2022-09-14T02:33:25.681Z,70.20
2022-09-14T02:36:02.974Z,70.29
2022-09-14T02:39:43.601Z,70.41
2022-09-14T02:42:30.066Z,70.37
2022-09-14T02:45:54.198Z,70.42
2022-09-14T02:48:44.235Z,70.69
2022-09-14T02:51:31.358Z,70.68
2022-09-14T02:54:44.717Z,70.69
2022-09-14T02:57:24.435Z,70.93
2022-09-14T02:59:57.707Z,70.98
2022-09-14T03:02:28.441Z,71.21
2022-09-14T03:04:59.172Z,71.44
2022-09-14T03:07:27.733Z,71.55
2022-09-14T03:09:56.093Z,71.64
2022-09-14T03:12:25.043Z,71.68
2022-09-14T03:15:02.001Z,71.74
2022-09-14T03:17:30.201Z,72.01
2022-09-14T03:20:00.197Z,72.09
2022-09-14T03:22:28.471Z,72.19
2022-09-14T03:24:56.631Z,72.25
2022-09-14T03:27:24.848Z,72.41
2022-09-14T03:29:53.080Z,72.97
2022-09-14T03:32:32.628Z,73.00
2022-09-14T03:35:01.201Z,73.00
2022-09-14T03:37:30.253Z,73.21
2022-09-14T03:40:21.657Z,73.46
2022-09-14T03:42:52.055Z,73.61
2022-09-14T03:45:32.323Z,73.67
2022-09-14T03:48:11.452Z,73.72
2022-09-14T03:50:40.681Z,74.13
2022-09-14T03:53:13.162Z,74.06
2022-09-14T03:55:50.638Z,74.29
2022-09-14T03:58:24.554Z,74.30
2022-09-14T04:00:58.161Z,74.49
2022-09-14T04:03:26.407Z,74.52
2022-09-14T04:05:56.863Z,74.81
2022-09-14T04:08:26.307Z,75.19
2022-09-14T04:10:54.740Z,75.29
2022-09-14T04:13:22.973Z,75.32
2022-09-14T04:16:02.025Z,75.48
2022-09-14T04:18:30.977Z,75.38
2022-09-14T04:21:08.504Z,75.63
2022-09-14T04:23:51.323Z,75.91
2022-09-14T04:26:30.256Z,75.67
2022-09-14T04:28:59.334Z,75.96
2022-09-14T04:31:28.944Z,76.27
2022-09-14T04:33:57.528Z,76.47
2022-09-14T04:36:31.018Z,76.32
2022-09-14T04:39:02.127Z,76.25
2022-09-14T04:41:31.969Z,76.29
2022-09-14T04:44:01.434Z,76.16
2022-09-14T04:46:35.968Z,76.29
2022-09-14T04:49:04.295Z,76.43
2022-09-14T04:51:34.048Z,76.48
2022-09-14T04:54:06.453Z,76.66
2022-09-14T04:56:37.197Z,76.68
2022-09-14T04:59:06.261Z,76.66
2022-09-14T05:01:49.853Z,76.53
2022-09-14T05:04:19.460Z,76.29
2022-09-14T05:06:47.891Z,76.21
2022-09-14T05:09:19.149Z,76.26
2022-09-14T05:11:49.692Z,76.19
2022-09-14T05:14:17.998Z,75.86
2022-09-14T05:16:48.150Z,75.86
2022-09-14T05:19:18.409Z,75.54
2022-09-14T05:21:47.432Z,75.33
2022-09-14T05:24:19.271Z,75.07
2022-09-14T05:26:47.721Z,74.86
2022-09-14T05:29:19.580Z,74.57
2022-09-14T05:31:48.073Z,74.16
2022-09-14T05:34:17.914Z,73.62
2022-09-14T05:36:46.356Z,73.28
2022-09-14T05:39:15.626Z,73.21
2022-09-14T05:41:45.275Z,73.04
2022-09-14T05:44:13.481Z,72.30
2022-09-14T05:46:55.043Z,72.08
2022-09-14T05:49:31.303Z,71.94
2022-09-14T05:52:04.549Z,71.33
2022-09-14T05:54:33.675Z,71.10
2022-09-14T05:57:03.031Z,70.83
2022-09-14T05:59:31.809Z,70.07
2022-09-14T06:02:00.200Z,70.00
2022-09-14T06:04:28.686Z,69.96
2022-09-14T06:07:17.355Z,69.65
2022-09-14T06:09:45.305Z,69.38
2022-09-14T06:12:15.554Z,68.99
2022-09-14T06:14:51.964Z,68.86
2022-09-14T06:17:21.765Z,68.49
2022-09-14T06:19:50.042Z,67.89
2022-09-14T06:22:18.459Z,67.45
2022-09-14T06:24:46.804Z,67.46
2022-09-14T06:27:18.035Z,67.34
2022-09-14T06:29:51.973Z,67.25
2022-09-14T06:32:23.419Z,67.01
2022-09-14T06:35:12.450Z,67.31
2022-09-14T06:37:45.618Z,66.70
2022-09-14T06:40:18.534Z,66.84
2022-09-14T06:42:47.145Z,66.87
2022-09-14T06:45:32.832Z,66.47
2022-09-14T06:48:03.372Z,66.40
2022-09-14T06:50:49.209Z,65.86
2022-09-14T06:53:25.698Z,65.68
2022-09-14T06:55:59.785Z,65.68
2022-09-14T06:58:28.069Z,65.86
2022-09-14T07:01:22.296Z,65.58
2022-09-14T07:03:55.294Z,65.60
2022-09-14T07:06:27.948Z,65.54
2022-09-14T07:08:56.251Z,65.77
2022-09-14T07:11:27.841Z,65.93
2022-09-14T07:14:00.269Z,65.81
2022-09-14T07:16:31.195Z,65.75
2022-09-14T07:19:03.151Z,65.51
2022-09-14T07:21:33.489Z,65.39
2022-09-14T07:24:02.305Z,65.44
2022-09-14T07:26:39.623Z,65.52
2022-09-14T07:29:15.209Z,64.75
2022-09-14T07:31:52.645Z,64.42
2022-09-14T07:34:25.608Z,64.15
2022-09-14T07:36:54.315Z,64.29
2022-09-14T07:39:22.571Z,64.22
2022-09-14T07:41:50.888Z,64.00
2022-09-14T07:44:19.547Z,63.58
2022-09-14T07:46:47.900Z,63.78
2022-09-14T07:49:17.921Z,64.07
2022-09-14T07:51:46.773Z,64.36
2022-09-14T07:54:19.684Z,64.41
2022-09-14T07:56:50.780Z,64.63
2022-09-14T07:59:35.477Z,64.62
2022-09-14T08:02:11.253Z,64.76
2022-09-14T08:05:03.301Z,64.90
2022-09-14T08:07:32.706Z,64.87
2022-09-14T08:10:02.333Z,64.95
2022-09-14T08:12:31.253Z,64.74
2022-09-14T08:14:59.513Z,64.60
2022-09-14T08:17:28.366Z,64.48
2022-09-14T08:20:06.447Z,64.78
2022-09-14T08:22:35.649Z,64.60
2022-09-14T08:25:13.145Z,64.56
2022-09-14T08:27:43.247Z,64.65
2022-09-14T08:30:13.955Z,64.48
2022-09-14T08:32:46.299Z,64.38
2022-09-14T08:35:40.778Z,64.51
2022-09-14T08:38:12.513Z,64.25
2022-09-14T08:40:51.351Z,63.75
2022-09-14T08:43:27.966Z,63.30
2022-09-14T08:46:04.354Z,63.24
2022-09-14T08:48:42.828Z,63.15
2022-09-14T08:51:11.516Z,62.88
2022-09-14T08:53:41.867Z,62.57
2022-09-14T08:56:17.746Z,61.53
2022-09-14T08:59:40.404Z,60.83
2022-09-14T09:02:28.925Z,60.77
2022-09-14T09:05:20.469Z,59.80
2022-09-14T09:08:45.806Z,59.63
2022-09-14T09:11:21.645Z,59.10
2022-09-14T09:13:53.070Z,58.92
2022-09-14T09:16:25.915Z,58.39
2022-09-14T09:19:00.407Z,58.07
2022-09-14T09:21:45.569Z,58.06
2022-09-14T09:24:53.721Z,57.52
2022-09-14T09:27:24.528Z,56.88
2022-09-14T09:29:52.766Z,55.83
2022-09-14T09:32:25.946Z,54.94
2022-09-14T09:35:07.887Z,54.70
2022-09-14T09:37:45.566Z,54.60
2022-09-14T09:40:41.173Z,54.27
2022-09-14T09:43:33.290Z,54.31
2022-09-14T09:46:13.412Z,54.39
2022-09-14T09:48:45.814Z,54.07
2022-09-14T09:51:25.537Z,53.70
2022-09-14T09:54:14.389Z,53.80
2022-09-14T09:56:58.266Z,53.90
2022-09-14T09:59:37.665Z,53.19
2022-09-14T10:02:30.065Z,53.22
2022-09-14T10:04:59.737Z,52.76
2022-09-14T10:07:31.944Z,51.52
2022-09-14T10:10:11.181Z,52.32
2022-09-14T10:12:50.953Z,52.51
2022-09-14T10:15:31.880Z,51.76
2022-09-14T10:18:09.255Z,52.20
2022-09-14T10:20:42.785Z,51.77
2022-09-14T10:23:20.206Z,51.49
2022-09-14T10:26:14.903Z,50.47
2022-09-14T10:28:50.892Z,50.64
2022-09-14T10:31:31.507Z,50.47
2022-09-14T10:34:00.851Z,49.82
2022-09-14T10:36:51.219Z,49.41
2022-09-14T10:39:39.877Z,49.61
2022-09-14T10:42:39.634Z,49.49
2022-09-14T10:45:37.107Z,48.27
2022-09-14T10:48:44.081Z,48.23
2022-09-14T10:52:05.733Z,49.23
2022-09-14T10:55:04.611Z,49.62
2022-09-14T10:58:07.572Z,49.54
2022-09-14T11:00:51.559Z,49.63
2022-09-14T11:03:35.349Z,49.53
2022-09-14T11:06:26.181Z,49.92
2022-09-14T11:09:34.357Z,50.24
2022-09-14T11:12:42.100Z,50.17
2022-09-14T11:15:31.306Z,50.48
2022-09-14T11:18:26.411Z,50.40
2022-09-14T11:21:29.917Z,49.95
2022-09-14T11:24:33.468Z,49.53
2022-09-14T11:27:21.725Z,49.54
2022-09-14T11:30:21.020Z,49.68
2022-09-14T11:34:04.759Z,49.66
2022-09-14T11:36:54.778Z,49.47
2022-09-14T11:39:30.927Z,48.74
2022-09-14T11:42:38.110Z,48.70
2022-09-14T11:45:30.290Z,48.85
2022-09-14T11:48:43.430Z,48.52
2022-09-14T11:51:32.665Z,48.34
2022-09-14T11:54:17.009Z,47.98
2022-09-14T11:57:03.572Z,48.34
2022-09-14T11:59:40.968Z,48.68
2022-09-14T12:02:27.759Z,48.43
2022-09-14T12:05:05.254Z,48.68
2022-09-14T12:07:42.717Z,48.83
2022-09-14T12:10:13.985Z,48.83
2022-09-14T12:12:59.095Z,48.61
2022-09-14T12:15:27.248Z,48.91
2022-09-14T12:18:07.548Z,48.88
2022-09-14T12:20:41.460Z,48.98
2022-09-14T12:23:37.278Z,49.28
2022-09-14T12:26:10.535Z,49.46
2022-09-14T12:28:50.780Z,49.57
2022-09-14T12:31:47.617Z,49.83
2022-09-14T12:34:34.558Z,50.21
2022-09-14T12:37:32.501Z,50.02
2022-09-14T12:40:37.546Z,50.20
2022-09-14T12:43:34.690Z,50.59
2022-09-14T12:46:38.656Z,50.63
2022-09-14T12:49:31.397Z,50.65
2022-09-14T12:52:13.253Z,50.64
2022-09-14T12:55:37.021Z,50.88
2022-09-14T12:58:42.872Z,51.27
2022-09-14T13:01:16.365Z,51.89
2022-09-14T13:04:00.208Z,52.22
2022-09-14T13:06:46.586Z,52.61
2022-09-14T13:09:28.926Z,52.77
2022-09-14T13:12:41.769Z,53.20
2022-09-14T13:15:30.554Z,53.50
2022-09-14T13:18:24.981Z,53.73
2022-09-14T13:20:58.863Z,53.86
2022-09-14T13:23:44.962Z,54.02
2022-09-14T13:26:34.315Z,53.95
2022-09-14T13:29:02.851Z,53.87
2022-09-14T13:31:51.061Z,53.92
2022-09-14T13:34:39.131Z,54.18
2022-09-14T13:37:15.514Z,54.38
2022-09-14T13:40:01.412Z,54.80
2022-09-14T13:42:31.747Z,54.97
2022-09-14T13:45:08.700Z,55.13
2022-09-14T13:47:39.773Z,55.41
2022-09-14T13:50:31.168Z,55.72
2022-09-14T13:53:03.414Z,55.95
2022-09-14T13:55:35.419Z,56.32
2022-09-14T13:58:13.825Z,56.27
2022-09-14T14:01:05.285Z,56.19
2022-09-14T14:04:04.602Z,55.79
2022-09-14T14:06:38.072Z,55.23
2022-09-14T14:09:25.379Z,55.40
2022-09-14T14:11:56.534Z,55.49
2022-09-14T14:14:31.068Z,55.21
2022-09-14T14:17:36.995Z,54.97
2022-09-14T14:20:44.605Z,54.96
2022-09-14T14:23:26.113Z,54.87
2022-09-14T14:26:26.052Z,54.83
2022-09-14T14:29:26.032Z,54.72
2022-09-14T14:31:56.670Z,54.57
2022-09-14T14:34:28.695Z,54.64
2022-09-14T14:36:56.932Z,54.60
2022-09-14T14:39:25.912Z,54.67
2022-09-14T14:41:54.636Z,54.54
2022-09-14T14:44:28.468Z,54.45
2022-09-14T14:46:58.220Z,54.66
2022-09-14T14:49:27.489Z,55.25
2022-09-14T14:51:55.814Z,55.63
2022-09-14T14:54:24.020Z,55.76
2022-09-14T14:56:52.980Z,55.90
2022-09-14T14:59:21.060Z,55.91
2022-09-14T15:01:52.105Z,56.17
2022-09-14T15:04:20.949Z,56.35
2022-09-14T15:06:49.978Z,56.41
2022-09-14T15:09:27.413Z,56.48
2022-09-14T15:11:56.931Z,56.64
2022-09-14T15:14:27.868Z,56.85
2022-09-14T15:17:00.334Z,56.88
2022-09-14T15:19:28.985Z,56.87
2022-09-14T15:22:01.064Z,56.96
2022-09-14T15:24:30.469Z,56.98
2022-09-14T15:26:59.722Z,56.94
2022-09-14T15:29:28.544Z,57.06
2022-09-14T15:31:56.939Z,57.03
2022-09-14T15:34:25.308Z,57.11
2022-09-14T15:36:54.459Z,57.17
2022-09-14T15:39:28.958Z,57.12
2022-09-14T15:41:57.778Z,57.22
2022-09-14T15:44:26.121Z,57.21
2022-09-14T15:46:56.359Z,57.23
2022-09-14T15:49:26.215Z,57.31
2022-09-14T15:51:57.119Z,57.20
2022-09-14T15:54:31.274Z,57.35
2022-09-14T15:57:00.578Z,57.47
2022-09-14T15:59:28.869Z,57.58
2022-09-14T16:01:57.138Z,57.60
2022-09-14T16:04:25.544Z,57.61
2022-09-14T16:06:53.877Z,57.72
2022-09-14T16:09:22.741Z,57.91
2022-09-14T16:11:50.905Z,57.87
2022-09-14T16:14:19.286Z,58.04
2022-09-14T16:16:47.562Z,58.07
2022-09-14T16:19:15.861Z,58.15
2022-09-14T16:21:44.084Z,58.22
2022-09-14T16:24:19.300Z,58.30
2022-09-14T16:26:47.517Z,58.33
2022-09-14T16:29:18.224Z,58.52
2022-09-14T16:31:48.129Z,58.44
2022-09-14T16:34:24.924Z,58.50
2022-09-14T16:36:53.249Z,58.60
2022-09-14T16:39:51.735Z,58.71
2022-09-14T16:42:20.464Z,58.80
2022-09-14T16:44:48.837Z,58.85
2022-09-14T16:47:17.031Z,59.05
2022-09-14T16:49:45.217Z,58.98
2022-09-14T16:52:13.457Z,59.08
2022-09-14T16:54:41.762Z,59.22
2022-09-14T16:57:10.169Z,59.31
2022-09-14T16:59:38.969Z,59.30
2022-09-14T17:02:11.707Z,59.44
2022-09-14T17:04:39.763Z,59.46
2022-09-14T17:07:07.958Z,59.44
2022-09-14T17:09:36.390Z,59.66
2022-09-14T17:12:05.353Z,59.68
2022-09-14T17:14:34.217Z,59.75
2022-09-14T17:17:02.478Z,59.90
2022-09-14T17:19:30.768Z,59.91
2022-09-14T17:21:58.919Z,59.76
2022-09-14T17:24:27.805Z,59.97
2022-09-14T17:26:56.030Z,59.96
2022-09-14T17:29:35.698Z,60.09
2022-09-14T17:32:04.071Z,60.17
2022-09-14T17:34:32.275Z,60.25
2022-09-14T17:37:00.475Z,60.16
2022-09-14T17:39:28.902Z,60.18
2022-09-14T17:41:57.129Z,60.24
2022-09-14T17:44:26.007Z,60.14
2022-09-14T17:46:54.212Z,60.14
2022-09-14T17:49:23.133Z,60.07
2022-09-14T17:51:51.577Z,60.05
2022-09-14T17:54:20.760Z,60.08
2022-09-14T17:56:49.764Z,60.06
2022-09-14T17:59:20.931Z,60.08
2022-09-14T18:01:50.500Z,60.14
2022-09-14T18:04:19.293Z,60.00
2022-09-14T18:06:49.696Z,60.01
2022-09-14T18:09:21.718Z,60.13
2022-09-14T18:11:51.258Z,60.14
2022-09-14T18:14:19.840Z,60.20
2022-09-14T18:16:48.494Z,60.20
2022-09-14T18:19:17.130Z,60.29
2022-09-14T18:21:50.188Z,60.46
2022-09-14T18:24:20.866Z,60.41
2022-09-14T18:26:49.165Z,60.60
2022-09-14T18:29:21.384Z,60.67
2022-09-14T18:31:52.311Z,60.72
2022-09-14T18:34:22.193Z,60.70
2022-09-14T18:36:52.258Z,60.74
2022-09-14T18:39:21.090Z,60.81
2022-09-14T18:41:56.290Z,60.81
2022-09-14T18:44:24.751Z,60.86
2022-09-14T18:46:53.078Z,61.03
2022-09-14T18:49:21.396Z,61.04
2022-09-14T18:51:49.869Z,61.06
2022-09-14T18:54:18.493Z,61.22
2022-09-14T18:56:46.765Z,61.09
2022-09-14T18:59:15.462Z,61.29
2022-09-14T19:01:44.319Z,61.32
2022-09-14T19:04:13.097Z,61.43
2022-09-14T19:06:41.983Z,61.39
2022-09-14T19:09:11.562Z,61.48
2022-09-14T19:11:39.869Z,61.55
2022-09-14T19:14:11.803Z,61.60
2022-09-14T19:16:41.648Z,61.68
2022-09-14T19:19:14.214Z,61.69
2022-09-14T19:21:44.035Z,61.66
2022-09-14T19:24:17.534Z,61.76
2022-09-14T19:26:51.633Z,61.89
2022-09-14T19:29:23.102Z,61.80
2022-09-14T19:31:52.878Z,61.95
2022-09-14T19:34:26.324Z,62.00
2022-09-14T19:36:55.491Z,62.11
2022-09-14T19:39:25.539Z,62.22
2022-09-14T19:41:53.825Z,62.18
2022-09-14T19:44:23.288Z,62.22
2022-09-14T19:46:51.893Z,62.30
2022-09-14T19:49:24.788Z,62.33
2022-09-14T19:51:54.091Z,62.39
2022-09-14T19:54:23.109Z,62.59
2022-09-14T19:56:51.330Z,62.59
2022-09-14T19:59:19.519Z,62.74
2022-09-14T20:01:48.352Z,62.81
2022-09-14T20:04:18.489Z,62.83
2022-09-14T20:06:48.161Z,62.83
2022-09-14T20:09:21.960Z,62.98
2022-09-14T20:11:52.941Z,63.05
2022-09-14T20:14:25.478Z,63.21
2022-09-14T20:16:57.852Z,63.28
2022-09-14T20:19:29.286Z,63.44
2022-09-14T20:21:57.654Z,63.57
2022-09-14T20:24:28.885Z,63.65
2022-09-14T20:27:00.480Z,63.51
2022-09-14T20:29:34.124Z,63.72
2022-09-14T20:32:03.924Z,63.83
2022-09-14T20:34:32.538Z,63.88
2022-09-14T20:37:00.808Z,64.10
2022-09-14T20:39:29.687Z,64.25
2022-09-14T20:41:57.873Z,64.37
2022-09-14T20:44:26.053Z,64.46
2022-09-14T20:46:54.234Z,64.68
2022-09-14T20:49:23.932Z,64.78
2022-09-14T20:51:57.428Z,64.85
2022-09-14T20:54:25.589Z,64.86
2022-09-14T20:56:53.757Z,65.18
2022-09-14T20:59:22.459Z,65.23
2022-09-14T21:01:52.922Z,65.43
2022-09-14T21:04:24.793Z,65.64
2022-09-14T21:06:55.585Z,65.65
2022-09-14T21:09:25.983Z,65.79
2022-09-14T21:11:54.434Z,65.84
2022-09-14T21:14:22.849Z,66.02
2022-09-14T21:16:55.401Z,66.17
2022-09-14T21:19:27.666Z,66.25
2022-09-14T21:21:56.998Z,66.32
2022-09-14T21:24:25.682Z,66.48
2022-09-14T21:26:56.111Z,66.56
2022-09-14T21:29:25.453Z,66.69
2022-09-14T21:31:53.673Z,66.63
2022-09-14T21:34:22.425Z,66.68
2022-09-14T21:36:52.112Z,66.78
2022-09-14T21:39:27.172Z,66.84
2022-09-14T21:41:59.399Z,66.88
2022-09-14T21:44:31.389Z,66.99
2022-09-14T21:47:00.616Z,67.14
2022-09-14T21:49:29.015Z,67.10
2022-09-14T21:51:57.269Z,67.21
2022-09-14T21:54:25.567Z,67.40
2022-09-14T21:56:54.325Z,67.25
2022-09-14T21:59:23.284Z,67.42
2022-09-14T22:01:51.800Z,67.37
2022-09-14T22:04:23.341Z,67.46
2022-09-14T22:06:53.379Z,67.61
2022-09-14T22:09:25.375Z,67.70
2022-09-14T22:11:54.812Z,67.64
2022-09-14T22:14:28.577Z,67.78
2022-09-14T22:16:57.038Z,67.96
2022-09-14T22:19:32.123Z,68.13
2022-09-14T22:22:00.961Z,68.24
2022-09-14T22:24:38.186Z,68.35
2022-09-14T22:27:09.533Z,68.34
2022-09-14T22:29:42.889Z,68.59
2022-09-14T22:32:12.144Z,69.03
2022-09-14T22:34:49.347Z,68.98
2022-09-14T22:37:17.893Z,68.96
2022-09-14T22:39:47.081Z,69.22
2022-09-14T22:42:15.504Z,69.28
2022-09-14T22:44:43.616Z,69.37
2022-09-14T22:47:12.636Z,69.51
2022-09-14T22:49:40.737Z,69.75
2022-09-14T22:52:08.814Z,70.00
2022-09-14T22:54:37.198Z,70.22
2022-09-14T22:57:05.355Z,70.11
2022-09-14T22:59:33.434Z,70.21
2022-09-14T23:02:01.647Z,70.26
2022-09-14T23:04:31.199Z,70.42
2022-09-14T23:07:00.277Z,70.35
2022-09-14T23:09:28.529Z,70.45
2022-09-14T23:11:56.610Z,70.63
2022-09-14T23:14:24.911Z,70.68
2022-09-14T23:16:53.030Z,71.02
2022-09-14T23:19:21.251Z,71.05
2022-09-14T23:21:49.356Z,71.05
2022-09-14T23:24:17.530Z,71.21
2022-09-14T23:26:45.638Z,71.38
2022-09-14T23:29:16.657Z,71.46
2022-09-14T23:31:45.177Z,71.40
2022-09-14T23:34:14.038Z,71.45
2022-09-14T23:36:42.244Z,71.56
2022-09-14T23:39:10.445Z,71.79
2022-09-14T23:41:39.745Z,72.00
2022-09-14T23:44:09.917Z,72.13
2022-09-14T23:46:38.525Z,72.14
2022-09-14T23:49:06.673Z,72.23
2022-09-14T23:51:34.744Z,72.40
2022-09-14T23:54:02.901Z,72.50
2022-09-14T23:56:32.226Z,72.48
2022-09-14T23:59:00.731Z,72.47
